sensor_id;sensor_type;location;lat;lon;timestamp;P1;durP1;ratioP1;P2;durP2;ratioP2
14760;SDS011;7472;45.396;5.272;2024-03-22T00:01:52;3.60;;;2.00;;
14760;SDS011;7472;45.396;5.272;2024-03-22T00:04:19;2.95;;;2.22;;
14760;SDS011;7472;45.396;5.272;2024-03-22T00:06:47;1.80;;;1.58;;
14760;SDS011;7472;45.396;5.272;2024-03-22T00:09:15;4.13;;;2.03;;
14760;SDS011;7472;45.396;5.272;2024-03-22T00:11:42;2.70;;;1.83;;
14760;SDS011;7472;45.396;5.272;2024-03-22T00:14:09;4.80;;;2.08;;
14760;SDS011;7472;45.396;5.272;2024-03-22T00:16:37;2.17;;;1.77;;
14760;SDS011;7472;45.396;5.272;2024-03-22T00:19:04;5.85;;;2.10;;
14760;SDS011;7472;45.396;5.272;2024-03-22T00:21:31;3.67;;;2.72;;
14760;SDS011;7472;45.396;5.272;2024-03-22T00:23:57;3.13;;;2.05;;
14760;SDS011;7472;45.396;5.272;2024-03-22T00:26:27;5.65;;;1.70;;
14760;SDS011;7472;45.396;5.272;2024-03-22T00:28:54;2.92;;;1.63;;
14760;SDS011;7472;45.396;5.272;2024-03-22T00:31:23;3.80;;;1.50;;
14760;SDS011;7472;45.396;5.272;2024-03-22T00:33:49;3.33;;;1.92;;
14760;SDS011;7472;45.396;5.272;2024-03-22T00:36:16;3.03;;;1.60;;
14760;SDS011;7472;45.396;5.272;2024-03-22T00:38:43;6.95;;;2.90;;
14760;SDS011;7472;45.396;5.272;2024-03-22T00:41:10;4.32;;;3.13;;
14760;SDS011;7472;45.396;5.272;2024-03-22T00:43:38;6.28;;;3.53;;
14760;SDS011;7472;45.396;5.272;2024-03-22T00:46:05;5.05;;;3.10;;
14760;SDS011;7472;45.396;5.272;2024-03-22T00:48:32;4.20;;;3.20;;
14760;SDS011;7472;45.396;5.272;2024-03-22T00:51:01;4.40;;;2.95;;
14760;SDS011;7472;45.396;5.272;2024-03-22T00:53:27;4.20;;;3.13;;
14760;SDS011;7472;45.396;5.272;2024-03-22T00:55:55;6.32;;;3.20;;
14760;SDS011;7472;45.396;5.272;2024-03-22T00:58:24;5.32;;;2.75;;
14760;SDS011;7472;45.396;5.272;2024-03-22T01:00:53;4.20;;;2.63;;
14760;SDS011;7472;45.396;5.272;2024-03-22T01:03:20;5.00;;;3.03;;
14760;SDS011;7472;45.396;5.272;2024-03-22T01:05:46;4.22;;;2.88;;
14760;SDS011;7472;45.396;5.272;2024-03-22T01:08:14;3.50;;;2.90;;
14760;SDS011;7472;45.396;5.272;2024-03-22T01:10:40;4.78;;;2.35;;
14760;SDS011;7472;45.396;5.272;2024-03-22T01:13:07;3.85;;;2.25;;
14760;SDS011;7472;45.396;5.272;2024-03-22T01:15:34;4.30;;;2.00;;
14760;SDS011;7472;45.396;5.272;2024-03-22T01:18:03;2.53;;;1.90;;
14760;SDS011;7472;45.396;5.272;2024-03-22T01:20:30;3.85;;;1.90;;
14760;SDS011;7472;45.396;5.272;2024-03-22T01:22:58;2.47;;;1.83;;
14760;SDS011;7472;45.396;5.272;2024-03-22T01:25:25;5.00;;;2.67;;
14760;SDS011;7472;45.396;5.272;2024-03-22T01:27:52;2.58;;;1.90;;
14760;SDS011;7472;45.396;5.272;2024-03-22T01:30:19;4.10;;;1.90;;
14760;SDS011;7472;45.396;5.272;2024-03-22T01:32:46;2.75;;;2.05;;
14760;SDS011;7472;45.396;5.272;2024-03-22T01:35:14;4.40;;;2.10;;
14760;SDS011;7472;45.396;5.272;2024-03-22T01:37:41;3.80;;;3.22;;
14760;SDS011;7472;45.396;5.272;2024-03-22T01:40:08;5.05;;;3.58;;
14760;SDS011;7472;45.396;5.272;2024-03-22T01:42:36;5.50;;;3.83;;
14760;SDS011;7472;45.396;5.272;2024-03-22T01:45:02;6.60;;;3.20;;
14760;SDS011;7472;45.396;5.272;2024-03-22T01:47:30;6.20;;;3.58;;
14760;SDS011;7472;45.396;5.272;2024-03-22T01:49:56;7.05;;;3.17;;
14760;SDS011;7472;45.396;5.272;2024-03-22T01:52:25;6.05;;;2.90;;
14760;SDS011;7472;45.396;5.272;2024-03-22T01:54:51;5.55;;;3.35;;
14760;SDS011;7472;45.396;5.272;2024-03-22T01:57:19;8.32;;;3.72;;
14760;SDS011;7472;45.396;5.272;2024-03-22T01:59:45;3.35;;;3.05;;
14760;SDS011;7472;45.396;5.272;2024-03-22T02:02:13;5.85;;;3.90;;
14760;SDS011;7472;45.396;5.272;2024-03-22T02:04:39;6.95;;;3.35;;
14760;SDS011;7472;45.396;5.272;2024-03-22T02:07:07;5.97;;;3.47;;
14760;SDS011;7472;45.396;5.272;2024-03-22T02:09:35;5.30;;;3.42;;
14760;SDS011;7472;45.396;5.272;2024-03-22T02:12:02;4.45;;;3.15;;
14760;SDS011;7472;45.396;5.272;2024-03-22T02:14:29;3.90;;;2.50;;
14760;SDS011;7472;45.396;5.272;2024-03-22T02:16:56;4.10;;;3.13;;
14760;SDS011;7472;45.396;5.272;2024-03-22T02:19:22;4.68;;;2.88;;
14760;SDS011;7472;45.396;5.272;2024-03-22T02:21:50;4.70;;;3.13;;
14760;SDS011;7472;45.396;5.272;2024-03-22T02:24:17;4.30;;;2.85;;
14760;SDS011;7472;45.396;5.272;2024-03-22T02:26:45;5.35;;;3.08;;
14760;SDS011;7472;45.396;5.272;2024-03-22T02:29:11;5.03;;;2.17;;
14760;SDS011;7472;45.396;5.272;2024-03-22T02:31:39;4.30;;;2.42;;
14760;SDS011;7472;45.396;5.272;2024-03-22T02:34:05;5.15;;;2.47;;
14760;SDS011;7472;45.396;5.272;2024-03-22T02:36:32;3.25;;;2.03;;
14760;SDS011;7472;45.396;5.272;2024-03-22T02:38:59;3.22;;;2.30;;
14760;SDS011;7472;45.396;5.272;2024-03-22T02:41:28;2.50;;;2.30;;
14760;SDS011;7472;45.396;5.272;2024-03-22T02:43:54;3.15;;;2.25;;
14760;SDS011;7472;45.396;5.272;2024-03-22T02:46:21;3.13;;;2.20;;
14760;SDS011;7472;45.396;5.272;2024-03-22T02:48:49;3.65;;;1.80;;
14760;SDS011;7472;45.396;5.272;2024-03-22T02:51:15;2.75;;;2.35;;
14760;SDS011;7472;45.396;5.272;2024-03-22T02:53:43;3.92;;;2.25;;
14760;SDS011;7472;45.396;5.272;2024-03-22T02:56:09;4.82;;;2.58;;
14760;SDS011;7472;45.396;5.272;2024-03-22T02:58:38;3.70;;;2.42;;
14760;SDS011;7472;45.396;5.272;2024-03-22T03:01:04;5.63;;;2.58;;
14760;SDS011;7472;45.396;5.272;2024-03-22T03:03:31;2.20;;;1.98;;
14760;SDS011;7472;45.396;5.272;2024-03-22T03:05:58;5.97;;;2.83;;
14760;SDS011;7472;45.396;5.272;2024-03-22T03:08:25;3.85;;;2.22;;
14760;SDS011;7472;45.396;5.272;2024-03-22T03:10:52;3.47;;;2.47;;
14760;SDS011;7472;45.396;5.272;2024-03-22T03:13:19;2.90;;;2.22;;
14760;SDS011;7472;45.396;5.272;2024-03-22T03:15:47;6.07;;;2.40;;
14760;SDS011;7472;45.396;5.272;2024-03-22T03:18:15;3.85;;;2.47;;
14760;SDS011;7472;45.396;5.272;2024-03-22T03:20:41;7.95;;;2.78;;
14760;SDS011;7472;45.396;5.272;2024-03-22T03:23:08;3.13;;;2.47;;
14760;SDS011;7472;45.396;5.272;2024-03-22T03:25:35;3.15;;;2.17;;
14760;SDS011;7472;45.396;5.272;2024-03-22T03:28:02;3.47;;;2.30;;
14760;SDS011;7472;45.396;5.272;2024-03-22T03:30:29;3.33;;;2.33;;
14760;SDS011;7472;45.396;5.272;2024-03-22T03:32:57;4.18;;;2.63;;
14760;SDS011;7472;45.396;5.272;2024-03-22T03:35:24;2.92;;;2.47;;
14760;SDS011;7472;45.396;5.272;2024-03-22T03:37:52;2.70;;;2.15;;
14760;SDS011;7472;45.396;5.272;2024-03-22T03:40:18;4.57;;;2.55;;
14760;SDS011;7472;45.396;5.272;2024-03-22T03:42:47;1.88;;;1.73;;
14760;SDS011;7472;45.396;5.272;2024-03-22T03:45:13;3.40;;;2.10;;
14760;SDS011;7472;45.396;5.272;2024-03-22T03:47:41;3.63;;;1.98;;
14760;SDS011;7472;45.396;5.272;2024-03-22T03:50:09;3.33;;;2.13;;
14760;SDS011;7472;45.396;5.272;2024-03-22T03:52:36;4.93;;;2.10;;
14760;SDS011;7472;45.396;5.272;2024-03-22T03:55:03;4.18;;;2.38;;
14760;SDS011;7472;45.396;5.272;2024-03-22T03:57:30;4.00;;;2.10;;
14760;SDS011;7472;45.396;5.272;2024-03-22T03:59:56;3.25;;;2.25;;
14760;SDS011;7472;45.396;5.272;2024-03-22T04:02:24;4.72;;;2.38;;
14760;SDS011;7472;45.396;5.272;2024-03-22T04:04:51;3.63;;;2.30;;
14760;SDS011;7472;45.396;5.272;2024-03-22T04:07:21;4.65;;;2.38;;
14760;SDS011;7472;45.396;5.272;2024-03-22T04:09:47;6.07;;;2.55;;
14760;SDS011;7472;45.396;5.272;2024-03-22T04:12:14;4.30;;;2.30;;
14760;SDS011;7472;45.396;5.272;2024-03-22T04:14:41;4.53;;;2.20;;
14760;SDS011;7472;45.396;5.272;2024-03-22T04:17:08;4.20;;;2.05;;
14760;SDS011;7472;45.396;5.272;2024-03-22T04:19:34;5.05;;;2.75;;
14760;SDS011;7472;45.396;5.272;2024-03-22T04:22:02;9.15;;;2.60;;
14760;SDS011;7472;45.396;5.272;2024-03-22T04:24:30;3.22;;;2.08;;
14760;SDS011;7472;45.396;5.272;2024-03-22T04:26:57;3.25;;;2.50;;
14760;SDS011;7472;45.396;5.272;2024-03-22T04:29:23;7.72;;;2.72;;
14760;SDS011;7472;45.396;5.272;2024-03-22T04:31:51;3.75;;;2.90;;
14760;SDS011;7472;45.396;5.272;2024-03-22T04:34:17;6.10;;;3.85;;
14760;SDS011;7472;45.396;5.272;2024-03-22T04:36:45;6.93;;;3.42;;
14760;SDS011;7472;45.396;5.272;2024-03-22T04:39:11;7.05;;;4.05;;
14760;SDS011;7472;45.396;5.272;2024-03-22T04:41:40;4.82;;;3.22;;
14760;SDS011;7472;45.396;5.272;2024-03-22T04:44:06;4.72;;;2.45;;
14760;SDS011;7472;45.396;5.272;2024-03-22T04:46:34;7.13;;;2.83;;
14760;SDS011;7472;45.396;5.272;2024-03-22T04:49:00;3.15;;;2.38;;
14760;SDS011;7472;45.396;5.272;2024-03-22T04:51:28;4.03;;;2.55;;
14760;SDS011;7472;45.396;5.272;2024-03-22T04:53:54;5.13;;;2.65;;
14760;SDS011;7472;45.396;5.272;2024-03-22T04:56:21;5.88;;;3.08;;
14760;SDS011;7472;45.396;5.272;2024-03-22T04:58:49;6.15;;;3.50;;
14760;SDS011;7472;45.396;5.272;2024-03-22T05:01:17;4.25;;;2.97;;
14760;SDS011;7472;45.396;5.272;2024-03-22T05:03:43;5.53;;;2.60;;
14760;SDS011;7472;45.396;5.272;2024-03-22T05:06:11;4.32;;;2.75;;
14760;SDS011;7472;45.396;5.272;2024-03-22T05:08:37;3.30;;;3.00;;
14760;SDS011;7472;45.396;5.272;2024-03-22T05:11:04;5.70;;;2.47;;
14760;SDS011;7472;45.396;5.272;2024-03-22T05:13:31;4.90;;;2.17;;
14760;SDS011;7472;45.396;5.272;2024-03-22T05:16:00;5.25;;;2.40;;
14760;SDS011;7472;45.396;5.272;2024-03-22T05:18:26;3.50;;;2.47;;
14760;SDS011;7472;45.396;5.272;2024-03-22T05:20:54;6.40;;;2.28;;
14760;SDS011;7472;45.396;5.272;2024-03-22T05:23:20;3.30;;;2.80;;
14760;SDS011;7472;45.396;5.272;2024-03-22T05:25:48;2.63;;;2.42;;
14760;SDS011;7472;45.396;5.272;2024-03-22T05:28:14;3.53;;;2.40;;
14760;SDS011;7472;45.396;5.272;2024-03-22T05:30:41;7.13;;;2.60;;
14760;SDS011;7472;45.396;5.272;2024-03-22T05:33:09;8.75;;;2.88;;
14760;SDS011;7472;45.396;5.272;2024-03-22T05:35:37;7.03;;;3.25;;
14760;SDS011;7472;45.396;5.272;2024-03-22T05:38:05;7.60;;;3.53;;
14760;SDS011;7472;45.396;5.272;2024-03-22T05:40:31;3.72;;;3.25;;
14760;SDS011;7472;45.396;5.272;2024-03-22T05:42:58;5.13;;;3.00;;
14760;SDS011;7472;45.396;5.272;2024-03-22T05:45:25;3.88;;;3.05;;
14760;SDS011;7472;45.396;5.272;2024-03-22T05:47:52;5.75;;;3.10;;
14760;SDS011;7472;45.396;5.272;2024-03-22T05:50:20;6.55;;;2.95;;
14760;SDS011;7472;45.396;5.272;2024-03-22T05:52:47;3.50;;;2.80;;
14760;SDS011;7472;45.396;5.272;2024-03-22T05:55:14;4.97;;;3.10;;
14760;SDS011;7472;45.396;5.272;2024-03-22T05:57:41;4.43;;;2.65;;
14760;SDS011;7472;45.396;5.272;2024-03-22T06:00:08;5.30;;;2.70;;
14760;SDS011;7472;45.396;5.272;2024-03-22T06:02:36;4.05;;;2.53;;
14760;SDS011;7472;45.396;5.272;2024-03-22T06:05:03;4.88;;;2.33;;
14760;SDS011;7472;45.396;5.272;2024-03-22T06:07:32;5.78;;;2.65;;
14760;SDS011;7472;45.396;5.272;2024-03-22T06:10:06;3.28;;;2.97;;
14760;SDS011;7472;45.396;5.272;2024-03-22T06:12:35;5.72;;;2.55;;
14760;SDS011;7472;45.396;5.272;2024-03-22T06:15:01;6.18;;;2.45;;
14760;SDS011;7472;45.396;5.272;2024-03-22T06:17:31;4.90;;;3.00;;
14760;SDS011;7472;45.396;5.272;2024-03-22T06:19:58;3.72;;;2.63;;
14760;SDS011;7472;45.396;5.272;2024-03-22T06:22:26;4.72;;;2.90;;
14760;SDS011;7472;45.396;5.272;2024-03-22T06:24:53;5.03;;;3.25;;
14760;SDS011;7472;45.396;5.272;2024-03-22T06:27:21;2.97;;;2.67;;
14760;SDS011;7472;45.396;5.272;2024-03-22T06:29:47;8.38;;;3.10;;
14760;SDS011;7472;45.396;5.272;2024-03-22T06:32:15;6.30;;;3.58;;
14760;SDS011;7472;45.396;5.272;2024-03-22T06:34:41;7.50;;;3.25;;
14760;SDS011;7472;45.396;5.272;2024-03-22T06:37:09;5.10;;;3.53;;
14760;SDS011;7472;45.396;5.272;2024-03-22T06:39:35;3.63;;;3.10;;
14760;SDS011;7472;45.396;5.272;2024-03-22T06:42:04;4.38;;;3.28;;
14760;SDS011;7472;45.396;5.272;2024-03-22T06:44:31;5.22;;;3.72;;
14760;SDS011;7472;45.396;5.272;2024-03-22T06:46:58;6.35;;;3.85;;
14760;SDS011;7472;45.396;5.272;2024-03-22T06:49:24;5.78;;;3.97;;
14760;SDS011;7472;45.396;5.272;2024-03-22T06:51:52;8.23;;;4.45;;
14760;SDS011;7472;45.396;5.272;2024-03-22T06:54:18;7.70;;;3.70;;
14760;SDS011;7472;45.396;5.272;2024-03-22T06:56:45;6.00;;;3.78;;
14760;SDS011;7472;45.396;5.272;2024-03-22T06:59:13;7.32;;;4.60;;
14760;SDS011;7472;45.396;5.272;2024-03-22T07:01:41;5.80;;;3.70;;
14760;SDS011;7472;45.396;5.272;2024-03-22T07:04:07;5.13;;;3.95;;
14760;SDS011;7472;45.396;5.272;2024-03-22T07:06:34;4.70;;;3.50;;
14760;SDS011;7472;45.396;5.272;2024-03-22T07:09:01;5.43;;;3.55;;
14760;SDS011;7472;45.396;5.272;2024-03-22T07:11:28;5.75;;;3.92;;
14760;SDS011;7472;45.396;5.272;2024-03-22T07:13:55;6.45;;;4.00;;
14760;SDS011;7472;45.396;5.272;2024-03-22T07:16:25;5.70;;;4.22;;
14760;SDS011;7472;45.396;5.272;2024-03-22T07:18:51;5.97;;;4.00;;
14760;SDS011;7472;45.396;5.272;2024-03-22T07:21:19;6.05;;;3.67;;
14760;SDS011;7472;45.396;5.272;2024-03-22T07:23:45;5.95;;;3.78;;
14760;SDS011;7472;45.396;5.272;2024-03-22T07:26:13;4.20;;;3.80;;
14760;SDS011;7472;45.396;5.272;2024-03-22T07:28:39;9.32;;;4.28;;
14760;SDS011;7472;45.396;5.272;2024-03-22T07:31:06;5.15;;;3.85;;
14760;SDS011;7472;45.396;5.272;2024-03-22T07:33:34;5.68;;;3.55;;
14760;SDS011;7472;45.396;5.272;2024-03-22T07:36:02;5.95;;;3.40;;
14760;SDS011;7472;45.396;5.272;2024-03-22T07:38:28;4.10;;;3.42;;
14760;SDS011;7472;45.396;5.272;2024-03-22T07:40:56;4.88;;;3.72;;
14760;SDS011;7472;45.396;5.272;2024-03-22T07:43:22;6.38;;;3.40;;
14760;SDS011;7472;45.396;5.272;2024-03-22T07:45:49;6.03;;;3.42;;
14760;SDS011;7472;45.396;5.272;2024-03-22T07:48:16;6.28;;;3.55;;
14760;SDS011;7472;45.396;5.272;2024-03-22T07:50:45;6.05;;;3.42;;
14760;SDS011;7472;45.396;5.272;2024-03-22T07:53:11;4.20;;;3.42;;
14760;SDS011;7472;45.396;5.272;2024-03-22T07:55:39;6.43;;;3.40;;
14760;SDS011;7472;45.396;5.272;2024-03-22T07:58:05;8.18;;;3.55;;
14760;SDS011;7472;45.396;5.272;2024-03-22T08:00:33;9.65;;;3.85;;
14760;SDS011;7472;45.396;5.272;2024-03-22T08:02:59;12.88;;;3.25;;
14760;SDS011;7472;45.396;5.272;2024-03-22T08:05:26;8.85;;;3.25;;
14760;SDS011;7472;45.396;5.272;2024-03-22T08:07:54;14.68;;;3.65;;
14760;SDS011;7472;45.396;5.272;2024-03-22T08:10:22;5.85;;;4.03;;
14760;SDS011;7472;45.396;5.272;2024-03-22T08:12:48;7.05;;;3.40;;
14760;SDS011;7472;45.396;5.272;2024-03-22T08:15:17;6.22;;;3.42;;
14760;SDS011;7472;45.396;5.272;2024-03-22T08:17:43;8.15;;;3.45;;
14760;SDS011;7472;45.396;5.272;2024-03-22T08:20:11;6.60;;;3.80;;
14760;SDS011;7472;45.396;5.272;2024-03-22T08:22:37;9.93;;;3.92;;
14760;SDS011;7472;45.396;5.272;2024-03-22T08:25:07;5.88;;;3.35;;
14760;SDS011;7472;45.396;5.272;2024-03-22T08:27:33;6.93;;;3.47;;
14760;SDS011;7472;45.396;5.272;2024-03-22T08:30:00;4.60;;;2.95;;
14760;SDS011;7472;45.396;5.272;2024-03-22T08:32:27;6.05;;;3.10;;
14760;SDS011;7472;45.396;5.272;2024-03-22T08:34:55;4.22;;;2.83;;
14760;SDS011;7472;45.396;5.272;2024-03-22T08:37:21;4.20;;;2.70;;
14760;SDS011;7472;45.396;5.272;2024-03-22T08:39:49;5.00;;;2.75;;
14760;SDS011;7472;45.396;5.272;2024-03-22T08:42:17;6.85;;;3.28;;
14760;SDS011;7472;45.396;5.272;2024-03-22T08:44:44;4.65;;;2.75;;
14760;SDS011;7472;45.396;5.272;2024-03-22T08:47:10;3.85;;;2.75;;
14760;SDS011;7472;45.396;5.272;2024-03-22T08:49:38;3.97;;;2.55;;
14760;SDS011;7472;45.396;5.272;2024-03-22T08:52:06;2.53;;;2.13;;
14760;SDS011;7472;45.396;5.272;2024-03-22T08:54:34;5.72;;;2.08;;
14760;SDS011;7472;45.396;5.272;2024-03-22T08:57:00;3.63;;;2.72;;
14760;SDS011;7472;45.396;5.272;2024-03-22T08:59:29;4.03;;;2.30;;
14760;SDS011;7472;45.396;5.272;2024-03-22T09:01:55;5.35;;;2.45;;
14760;SDS011;7472;45.396;5.272;2024-03-22T09:04:24;2.33;;;2.13;;
14760;SDS011;7472;45.396;5.272;2024-03-22T09:06:50;2.30;;;2.10;;
14760;SDS011;7472;45.396;5.272;2024-03-22T09:09:18;5.45;;;2.28;;
14760;SDS011;7472;45.396;5.272;2024-03-22T09:11:44;2.72;;;2.08;;
14760;SDS011;7472;45.396;5.272;2024-03-22T09:14:12;4.00;;;2.42;;
14760;SDS011;7472;45.396;5.272;2024-03-22T09:16:39;3.20;;;2.25;;
14760;SDS011;7472;45.396;5.272;2024-03-22T09:19:07;4.65;;;2.00;;
14760;SDS011;7472;45.396;5.272;2024-03-22T09:21:33;2.65;;;2.13;;
14760;SDS011;7472;45.396;5.272;2024-03-22T09:24:01;2.88;;;2.03;;
14760;SDS011;7472;45.396;5.272;2024-03-22T09:26:28;2.22;;;1.95;;
14760;SDS011;7472;45.396;5.272;2024-03-22T09:28:55;3.92;;;2.15;;
14760;SDS011;7472;45.396;5.272;2024-03-22T09:31:22;4.03;;;2.65;;
14760;SDS011;7472;45.396;5.272;2024-03-22T09:33:50;5.05;;;1.85;;
14760;SDS011;7472;45.396;5.272;2024-03-22T09:36:17;5.60;;;2.17;;
14760;SDS011;7472;45.396;5.272;2024-03-22T09:38:44;3.42;;;2.60;;
14760;SDS011;7472;45.396;5.272;2024-03-22T09:41:11;3.00;;;2.22;;
14760;SDS011;7472;45.396;5.272;2024-03-22T09:43:40;6.63;;;2.20;;
14760;SDS011;7472;45.396;5.272;2024-03-22T09:46:06;2.75;;;2.30;;
14760;SDS011;7472;45.396;5.272;2024-03-22T09:48:34;5.78;;;2.88;;
14760;SDS011;7472;45.396;5.272;2024-03-22T09:51:02;5.22;;;2.35;;
14760;SDS011;7472;45.396;5.272;2024-03-22T09:53:30;4.13;;;2.85;;
14760;SDS011;7472;45.396;5.272;2024-03-22T09:55:57;3.22;;;2.50;;
14760;SDS011;7472;45.396;5.272;2024-03-22T09:58:27;3.28;;;2.67;;
14760;SDS011;7472;45.396;5.272;2024-03-22T10:00:53;3.42;;;2.78;;
14760;SDS011;7472;45.396;5.272;2024-03-22T10:03:25;4.38;;;2.95;;
14760;SDS011;7472;45.396;5.272;2024-03-22T10:05:52;4.10;;;2.97;;
14760;SDS011;7472;45.396;5.272;2024-03-22T10:08:20;3.67;;;2.92;;
14760;SDS011;7472;45.396;5.272;2024-03-22T10:10:47;4.93;;;2.90;;
14760;SDS011;7472;45.396;5.272;2024-03-22T10:13:15;3.00;;;2.70;;
14760;SDS011;7472;45.396;5.272;2024-03-22T10:15:41;4.20;;;3.03;;
14760;SDS011;7472;45.396;5.272;2024-03-22T10:18:09;3.53;;;2.63;;
14760;SDS011;7472;45.396;5.272;2024-03-22T10:20:36;4.70;;;2.78;;
14760;SDS011;7472;45.396;5.272;2024-03-22T10:23:03;4.22;;;2.97;;
14760;SDS011;7472;45.396;5.272;2024-03-22T10:25:31;5.55;;;3.10;;
14760;SDS011;7472;45.396;5.272;2024-03-22T10:27:59;5.22;;;2.50;;
14760;SDS011;7472;45.396;5.272;2024-03-22T10:30:26;2.58;;;2.08;;
14760;SDS011;7472;45.396;5.272;2024-03-22T10:32:53;5.82;;;2.60;;
14760;SDS011;7472;45.396;5.272;2024-03-22T10:35:20;3.50;;;2.15;;
14760;SDS011;7472;45.396;5.272;2024-03-22T10:37:47;5.22;;;2.28;;
14760;SDS011;7472;45.396;5.272;2024-03-22T10:40:14;2.72;;;2.00;;
14760;SDS011;7472;45.396;5.272;2024-03-22T10:42:43;5.63;;;2.17;;
14760;SDS011;7472;45.396;5.272;2024-03-22T10:45:10;3.78;;;1.85;;
14760;SDS011;7472;45.396;5.272;2024-03-22T10:47:39;3.28;;;2.03;;
14760;SDS011;7472;45.396;5.272;2024-03-22T10:50:06;2.80;;;2.00;;
14760;SDS011;7472;45.396;5.272;2024-03-22T10:52:34;3.88;;;1.80;;
14760;SDS011;7472;45.396;5.272;2024-03-22T10:55:02;3.17;;;1.77;;
14760;SDS011;7472;45.396;5.272;2024-03-22T10:57:31;5.10;;;2.30;;
14760;SDS011;7472;45.396;5.272;2024-03-22T11:00:03;5.78;;;2.03;;
14760;SDS011;7472;45.396;5.272;2024-03-22T11:02:35;8.45;;;1.70;;
14760;SDS011;7472;45.396;5.272;2024-03-22T11:05:01;3.22;;;1.70;;
14760;SDS011;7472;45.396;5.272;2024-03-22T11:07:29;3.65;;;1.40;;
14760;SDS011;7472;45.396;5.272;2024-03-22T11:09:56;1.52;;;1.25;;
14760;SDS011;7472;45.396;5.272;2024-03-22T11:12:24;2.17;;;1.38;;
14760;SDS011;7472;45.396;5.272;2024-03-22T11:14:51;2.03;;;1.30;;
14760;SDS011;7472;45.396;5.272;2024-03-22T11:17:20;0.77;;;0.75;;
14760;SDS011;7472;45.396;5.272;2024-03-22T11:19:50;3.75;;;1.30;;
14760;SDS011;7472;45.396;5.272;2024-03-22T11:22:18;1.67;;;1.00;;
14760;SDS011;7472;45.396;5.272;2024-03-22T11:24:44;3.17;;;1.20;;
14760;SDS011;7472;45.396;5.272;2024-03-22T11:27:12;3.30;;;1.10;;
14760;SDS011;7472;45.396;5.272;2024-03-22T11:29:39;2.28;;;1.08;;
14760;SDS011;7472;45.396;5.272;2024-03-22T11:32:09;2.80;;;1.75;;
14760;SDS011;7472;45.396;5.272;2024-03-22T11:34:36;4.80;;;1.70;;
14760;SDS011;7472;45.396;5.272;2024-03-22T11:37:05;4.90;;;1.95;;
14760;SDS011;7472;45.396;5.272;2024-03-22T11:39:32;2.72;;;1.38;;
14760;SDS011;7472;45.396;5.272;2024-03-22T11:42:01;2.65;;;1.63;;
14760;SDS011;7472;45.396;5.272;2024-03-22T11:44:28;3.15;;;1.92;;
14760;SDS011;7472;45.396;5.272;2024-03-22T11:46:55;3.17;;;1.45;;
14760;SDS011;7472;45.396;5.272;2024-03-22T11:49:22;3.55;;;1.30;;
14760;SDS011;7472;45.396;5.272;2024-03-22T11:51:52;3.38;;;1.75;;
14760;SDS011;7472;45.396;5.272;2024-03-22T11:54:19;3.67;;;1.73;;
14760;SDS011;7472;45.396;5.272;2024-03-22T11:56:46;2.58;;;1.27;;
14760;SDS011;7472;45.396;5.272;2024-03-22T11:59:13;3.75;;;1.48;;
14760;SDS011;7472;45.396;5.272;2024-03-22T12:01:40;3.17;;;1.58;;
14760;SDS011;7472;45.396;5.272;2024-03-22T12:04:07;5.30;;;1.42;;
14760;SDS011;7472;45.396;5.272;2024-03-22T12:06:40;2.42;;;1.25;;
14760;SDS011;7472;45.396;5.272;2024-03-22T12:09:08;3.45;;;1.55;;
14760;SDS011;7472;45.396;5.272;2024-03-22T12:11:37;3.80;;;1.35;;
14760;SDS011;7472;45.396;5.272;2024-03-22T12:14:03;2.53;;;1.75;;
14760;SDS011;7472;45.396;5.272;2024-03-22T12:16:31;2.40;;;1.27;;
14760;SDS011;7472;45.396;5.272;2024-03-22T12:18:57;1.70;;;1.08;;
14760;SDS011;7472;45.396;5.272;2024-03-22T12:21:25;6.40;;;1.50;;
14760;SDS011;7472;45.396;5.272;2024-03-22T12:23:51;2.55;;;1.60;;
14760;SDS011;7472;45.396;5.272;2024-03-22T12:26:20;3.50;;;1.30;;
14760;SDS011;7472;45.396;5.272;2024-03-22T12:28:46;3.08;;;1.40;;
14760;SDS011;7472;45.396;5.272;2024-03-22T12:31:16;2.15;;;1.40;;
14760;SDS011;7472;45.396;5.272;2024-03-22T12:33:44;1.95;;;1.55;;
14760;SDS011;7472;45.396;5.272;2024-03-22T12:36:11;2.20;;;1.42;;
14760;SDS011;7472;45.396;5.272;2024-03-22T12:38:37;3.60;;;1.40;;
14760;SDS011;7472;45.396;5.272;2024-03-22T12:41:05;1.92;;;1.23;;
14760;SDS011;7472;45.396;5.272;2024-03-22T12:43:33;2.03;;;1.10;;
14760;SDS011;7472;45.396;5.272;2024-03-22T12:46:00;1.10;;;0.95;;
14760;SDS011;7472;45.396;5.272;2024-03-22T12:48:28;2.45;;;1.08;;
14760;SDS011;7472;45.396;5.272;2024-03-22T12:50:55;4.75;;;1.60;;
14760;SDS011;7472;45.396;5.272;2024-03-22T12:53:21;1.92;;;1.05;;
14760;SDS011;7472;45.396;5.272;2024-03-22T12:55:49;3.97;;;1.00;;
14760;SDS011;7472;45.396;5.272;2024-03-22T12:58:15;2.20;;;1.10;;
14760;SDS011;7472;45.396;5.272;2024-03-22T13:00:44;2.17;;;1.20;;
14760;SDS011;7472;45.396;5.272;2024-03-22T13:03:10;1.05;;;0.88;;
14760;SDS011;7472;45.396;5.272;2024-03-22T13:05:38;2.65;;;1.05;;
14760;SDS011;7472;45.396;5.272;2024-03-22T13:08:05;2.75;;;1.23;;
14760;SDS011;7472;45.396;5.272;2024-03-22T13:10:32;1.73;;;1.40;;
14760;SDS011;7472;45.396;5.272;2024-03-22T13:12:58;3.13;;;1.23;;
14760;SDS011;7472;45.396;5.272;2024-03-22T13:15:26;1.48;;;1.10;;
14760;SDS011;7472;45.396;5.272;2024-03-22T13:17:54;2.40;;;1.20;;
14760;SDS011;7472;45.396;5.272;2024-03-22T13:20:21;1.48;;;1.17;;
14760;SDS011;7472;45.396;5.272;2024-03-22T13:22:47;1.55;;;1.08;;
14760;SDS011;7472;45.396;5.272;2024-03-22T13:25:15;1.92;;;1.17;;
14760;SDS011;7472;45.396;5.272;2024-03-22T13:27:41;1.67;;;1.00;;
14760;SDS011;7472;45.396;5.272;2024-03-22T13:30:09;1.58;;;1.10;;
14760;SDS011;7472;45.396;5.272;2024-03-22T13:32:36;1.77;;;1.20;;
14760;SDS011;7472;45.396;5.272;2024-03-22T13:35:05;2.25;;;1.00;;
14760;SDS011;7472;45.396;5.272;2024-03-22T13:37:32;2.60;;;1.15;;
14760;SDS011;7472;45.396;5.272;2024-03-22T13:39:59;1.85;;;1.45;;
14760;SDS011;7472;45.396;5.272;2024-03-22T13:42:26;1.45;;;1.10;;
14760;SDS011;7472;45.396;5.272;2024-03-22T13:44:53;2.15;;;1.27;;
14760;SDS011;7472;45.396;5.272;2024-03-22T13:47:20;1.30;;;1.20;;
14760;SDS011;7472;45.396;5.272;2024-03-22T13:49:47;1.05;;;0.90;;
14760;SDS011;7472;45.396;5.272;2024-03-22T13:52:15;3.85;;;1.80;;
14760;SDS011;7472;45.396;5.272;2024-03-22T13:54:43;1.10;;;0.85;;
14760;SDS011;7472;45.396;5.272;2024-03-22T13:57:09;4.45;;;1.00;;
14760;SDS011;7472;45.396;5.272;2024-03-22T13:59:37;2.70;;;1.15;;
14760;SDS011;7472;45.396;5.272;2024-03-22T14:02:05;1.77;;;0.90;;
14760;SDS011;7472;45.396;5.272;2024-03-22T14:04:32;1.95;;;1.10;;
14760;SDS011;7472;45.396;5.272;2024-03-22T14:06:59;1.75;;;0.90;;
14760;SDS011;7472;45.396;5.272;2024-03-22T14:09:31;1.05;;;0.80;;
14760;SDS011;7472;45.396;5.272;2024-03-22T14:11:57;3.13;;;1.25;;
14760;SDS011;7472;45.396;5.272;2024-03-22T14:14:25;3.40;;;1.15;;
14760;SDS011;7472;45.396;5.272;2024-03-22T14:16:51;1.70;;;1.13;;
14760;SDS011;7472;45.396;5.272;2024-03-22T14:19:19;1.55;;;1.02;;
14760;SDS011;7472;45.396;5.272;2024-03-22T14:21:45;1.75;;;1.45;;
14760;SDS011;7472;45.396;5.272;2024-03-22T14:24:13;1.58;;;1.30;;
14760;SDS011;7472;45.396;5.272;2024-03-22T14:26:41;3.42;;;1.30;;
14760;SDS011;7472;45.396;5.272;2024-03-22T14:29:08;2.13;;;1.20;;
14760;SDS011;7472;45.396;5.272;2024-03-22T14:31:35;2.00;;;1.30;;
14760;SDS011;7472;45.396;5.272;2024-03-22T14:34:02;1.45;;;1.33;;
14760;SDS011;7472;45.396;5.272;2024-03-22T14:36:29;4.20;;;1.35;;
14760;SDS011;7472;45.396;5.272;2024-03-22T14:38:56;3.47;;;1.10;;
14760;SDS011;7472;45.396;5.272;2024-03-22T14:41:23;3.05;;;1.30;;
14760;SDS011;7472;45.396;5.272;2024-03-22T14:43:52;7.55;;;1.23;;
14760;SDS011;7472;45.396;5.272;2024-03-22T14:46:19;3.75;;;1.00;;
14760;SDS011;7472;45.396;5.272;2024-03-22T14:48:50;1.95;;;1.08;;
14760;SDS011;7472;45.396;5.272;2024-03-22T14:51:16;4.18;;;1.30;;
14760;SDS011;7472;45.396;5.272;2024-03-22T14:53:43;1.85;;;0.98;;
14760;SDS011;7472;45.396;5.272;2024-03-22T14:56:11;1.88;;;1.00;;
14760;SDS011;7472;45.396;5.272;2024-03-22T14:58:39;1.40;;;0.90;;
14760;SDS011;7472;45.396;5.272;2024-03-22T15:01:09;3.63;;;1.13;;